Time;durP1;ratioP1;P1;durP2;ratioP2;P2;SDS_P1;SDS_P2;PMS_P1;PMS_P2;Temp;Humidity;BMP_temperature;BMP_pressure;BME280_temperature;BME280_humidity;BME280_pressure;Samples;Min_cycle;Max_cycle;Signal;HPM_P1;HPM_P2
2022/03/05 00:01:44;;;;;;;46.83;22.87;;;;;;;2.17;100.00;100143.75;5013850;28;20578;-76
2022/03/05 00:04:10;;;;;;;46.07;23.20;;;;;;;2.00;100.00;100130.13;5015029;28;20193;-76
2022/03/05 00:06:37;;;;;;;46.40;22.73;;;;;;;2.11;100.00;100139.19;5026662;28;20690;-75
2022/03/05 00:09:04;;;;;;;54.87;26.00;;;;;;;2.19;100.00;100135.34;5020985;28;20219;-76
2022/03/05 00:11:31;;;;;;;51.57;24.80;;;;;;;2.04;100.00;100100.47;5013756;28;20209;-75
2022/03/05 00:13:58;;;;;;;59.83;26.63;;;;;;;2.31;100.00;100128.28;5013148;28;20189;-75
2022/03/05 00:16:26;;;;;;;64.10;28.03;;;;;;;2.28;100.00;100125.53;5013670;28;20188;-75
2022/03/05 00:18:52;;;;;;;55.97;29.83;;;;;;;2.26;100.00;100139.94;5018967;28;20201;-75
2022/03/05 00:21:19;;;;;;;58.03;27.03;;;;;;;2.25;100.00;100135.63;5023859;28;20279;-75
2022/03/05 00:23:46;;;;;;;55.13;27.33;;;;;;;2.29;100.00;100142.66;5030837;28;20207;-76
2022/03/05 00:26:13;;;;;;;49.00;26.83;;;;;;;2.22;100.00;100132.03;5029175;28;20583;-75
2022/03/05 00:28:40;;;;;;;49.80;26.13;;;;;;;2.17;100.00;100121.63;5014188;28;20229;-76
2022/03/05 00:31:06;;;;;;;53.33;26.33;;;;;;;2.11;100.00;100115.31;5033360;28;20204;-76
2022/03/05 00:33:35;;;;;;;53.83;26.50;;;;;;;2.26;100.00;100139.06;5033043;28;20200;-75
2022/03/05 00:36:02;;;;;;;56.20;27.13;;;;;;;2.09;100.00;100120.34;5016696;28;20211;-77
2022/03/05 00:38:29;;;;;;;50.40;26.90;;;;;;;1.95;100.00;100086.44;5013530;28;20213;-76
2022/03/05 00:40:56;;;;;;;60.03;28.80;;;;;;;2.24;100.00;100136.47;5013859;28;20189;-76
2022/03/05 00:43:23;;;;;;;57.80;30.37;;;;;;;2.20;100.00;100118.31;5032704;28;20697;-76
2022/03/05 00:45:50;;;;;;;63.43;30.70;;;;;;;2.24;100.00;100133.00;5016032;28;20223;-76
2022/03/05 00:48:17;;;;;;;56.47;29.27;;;;;;;2.29;100.00;100149.44;5017208;28;20224;-75
2022/03/05 00:50:45;;;;;;;61.50;26.53;;;;;;;2.32;100.00;100145.34;5020893;28;20220;-76
2022/03/05 00:53:12;;;;;;;46.13;23.50;;;;;;;2.32;100.00;100135.13;5024770;28;20189;-76
2022/03/05 00:55:40;;;;;;;50.67;23.07;;;;;;;2.36;100.00;100142.16;5028729;28;20220;-75
2022/03/05 00:58:06;;;;;;;38.50;20.37;;;;;;;2.46;100.00;100141.78;5013499;28;20287;-77
2022/03/05 01:00:33;;;;;;;35.77;19.80;;;;;;;2.28;100.00;100082.06;5012807;28;20196;-75
2022/03/05 01:03:00;;;;;;;39.03;21.90;;;;;;;2.55;100.00;100130.22;5013799;28;20192;-76
2022/03/05 01:05:27;;;;;;;41.97;22.13;;;;;;;2.62;100.00;100124.59;5022847;28;20192;-75
2022/03/05 01:07:55;;;;;;;35.27;19.33;;;;;;;2.78;100.00;100117.69;5025497;28;20193;-75
2022/03/05 01:10:22;;;;;;;37.43;21.03;;;;;;;2.83;100.00;100123.03;5025709;28;20674;-75
2022/03/05 01:12:49;;;;;;;42.20;23.00;;;;;;;2.65;100.00;100094.91;5013275;28;20201;-75
2022/03/05 01:15:15;;;;;;;42.63;22.70;;;;;;;2.94;100.00;100119.28;5012567;28;20193;-75
2022/03/05 01:17:42;;;;;;;50.73;22.17;;;;;;;2.92;100.00;100115.78;5028455;28;20808;-76
2022/03/05 01:20:10;;;;;;;43.70;23.73;;;;;;;2.88;100.00;100106.22;5032254;28;20283;-75
2022/03/05 01:22:37;;;;;;;44.40;22.63;;;;;;;2.92;100.00;100092.75;5032477;28;20203;-75
2022/03/05 01:25:06;;;;;;;44.67;24.13;;;;;;;2.69;100.00;100101.03;5016150;28;20205;-76
2022/03/05 01:27:32;;;;;;;45.60;24.67;;;;;;;2.52;100.00;100112.19;5022316;28;20687;-75
2022/03/05 01:29:59;;;;;;;41.37;22.93;;;;;;;2.59;100.00;100102.31;5012133;28;20734;-75
2022/03/05 01:32:26;;;;;;;45.77;24.03;;;;;;;2.60;100.00;100080.16;5024554;28;20188;-76
2022/03/05 01:34:53;;;;;;;41.53;23.50;;;;;;;2.36;100.00;100078.19;5029534;28;20192;-76
2022/03/05 01:37:20;;;;;;;31.43;17.93;;;;;;;2.75;100.00;100109.00;5020404;28;20208;-76
2022/03/05 01:39:46;;;;;;;49.73;22.33;;;;;;;2.79;100.00;100103.22;5012031;28;20208;-76
2022/03/05 01:42:14;;;;;;;46.27;24.17;;;;;;;2.81;100.00;100107.63;5012092;28;20690;-76
2022/03/05 01:44:41;;;;;;;41.53;23.90;;;;;;;2.37;100.00;100044.13;5018349;28;20192;-76
2022/03/05 01:47:08;;;;;;;50.20;25.10;;;;;;;2.75;100.00;100099.63;5030114;28;20639;-76
2022/03/05 01:49:35;;;;;;;47.73;24.97;;;;;;;2.66;100.00;100100.91;5028887;28;20228;-76
2022/03/05 01:52:02;;;;;;;43.27;23.73;;;;;;;2.28;100.00;100083.75;5031594;28;20196;-76
2022/03/05 01:54:30;;;;;;;45.77;23.83;;;;;;;2.19;100.00;100106.31;5031296;28;20196;-77
2022/03/05 01:56:58;;;;;;;39.27;19.97;;;;;;;1.91;100.00;100124.56;5023823;28;20207;-76
2022/03/05 01:59:26;;;;;;;39.77;20.27;;;;;;;1.48;100.00;100095.97;5016217;28;20607;-76
2022/03/05 02:01:53;;;;;;;38.17;19.27;;;;;;;1.35;100.00;100122.59;5023843;28;20588;-76
2022/03/05 02:04:20;;;;;;;37.20;20.77;;;;;;;1.35;100.00;100135.34;5027035;28;20196;-75
2022/03/05 02:06:47;;;;;;;38.67;20.07;;;;;;;1.29;100.00;100132.47;5012557;28;20585;-76
2022/03/05 02:09:14;;;;;;;41.87;21.20;;;;;;;1.13;100.00;100112.03;5025006;28;20215;-75
2022/03/05 02:11:41;;;;;;;43.20;22.00;;;;;;;1.15;100.00;100099.34;5030078;28;20199;-75
2022/03/05 02:14:08;;;;;;;54.30;23.10;;;;;;;1.35;100.00;100130.25;5018456;28;20205;-75
2022/03/05 02:16:37;;;;;;;50.43;23.47;;;;;;;1.26;100.00;100091.44;5011933;28;20207;-75
2022/03/05 02:19:05;;;;;;;51.70;22.67;;;;;;;1.48;100.00;100129.19;5028724;28;20192;-75
2022/03/05 02:21:33;;;;;;;49.40;23.97;;;;;;;1.18;100.00;100141.22;5031098;28;20196;-75
2022/03/05 02:24:00;;;;;;;60.57;26.13;;;;;;;1.22;100.00;100142.25;5031074;28;20207;-76
2022/03/05 02:26:27;;;;;;;49.67;23.10;;;;;;;1.54;100.00;100131.16;5030980;28;20192;-75
2022/03/05 02:28:54;;;;;;;54.57;22.53;;;;;;;1.56;100.00;100135.56;5029328;28;20228;-76
2022/03/05 02:31:21;;;;;;;62.30;25.47;;;;;;;1.58;100.00;100138.19;5016518;28;20196;-75
2022/03/05 02:33:47;;;;;;;63.83;27.57;;;;;;;1.58;100.00;100139.06;5012776;28;20205;-75
2022/03/05 02:36:15;;;;;;;53.57;22.77;;;;;;;1.58;100.00;100133.97;5013075;28;20199;-75
2022/03/05 02:38:43;;;;;;;69.43;26.33;;;;;;;1.66;100.00;100142.03;5015683;28;20201;-78
2022/03/05 02:41:10;;;;;;;50.63;22.30;;;;;;;1.72;100.00;100137.22;5015737;28;20205;-75
2022/03/05 02:43:36;;;;;;;60.73;26.10;;;;;;;1.80;100.00;100141.03;5032662;28;20192;-75
2022/03/05 02:46:03;;;;;;;59.57;25.33;;;;;;;1.77;100.00;100144.31;5034535;28;20318;-75
2022/03/05 02:48:33;;;;;;;53.10;22.83;;;;;;;1.58;100.00;100135.63;5031778;28;20235;-75
2022/03/05 02:51:00;;;;;;;65.23;21.77;;;;;;;1.56;100.00;100143.25;5016326;28;20201;-78
2022/03/05 02:53:26;;;;;;;71.37;22.40;;;;;;;1.57;100.00;100146.69;5034599;28;20715;-75
2022/03/05 02:55:55;;;;;;;98.23;24.97;;;;;;;1.49;100.00;100128.41;5022953;28;20280;-76
2022/03/05 02:58:22;;;;;;;92.23;26.10;;;;;;;1.64;100.00;100139.38;5015273;28;20585;-75
2022/03/05 03:00:50;;;;;;;110.80;27.53;;;;;;;1.72;100.00;100142.31;5014967;28;20216;-76
2022/03/05 03:03:18;;;;;;;61.60;21.93;;;;;;;1.50;100.00;100115.69;5014906;28;20278;-75
2022/03/05 03:05:45;;;;;;;50.97;20.17;;;;;;;1.82;100.00;100144.56;5014614;28;20199;-75
2022/03/05 03:08:12;;;;;;;41.57;14.17;;;;;;;1.59;100.00;100099.97;5020044;28;20203;-75
2022/03/05 03:10:39;;;;;;;106.80;22.70;;;;;;;1.72;100.00;100147.44;5034203;28;20741;-75
2022/03/05 03:13:07;;;;;;;50.13;22.57;;;;;;;1.83;100.00;100146.31;5034552;28;20196;-77
2022/03/05 03:15:34;;;;;;;42.97;17.63;;;;;;;1.88;100.00;100144.88;5034386;28;20191;-75
2022/03/05 03:18:01;;;;;;;70.70;26.80;;;;;;;2.06;100.00;100161.13;5034847;28;20200;-75
2022/03/05 03:20:29;;;;;;;62.43;25.83;;;;;;;2.07;100.00;100160.31;5033344;28;20192;-75
2022/03/05 03:22:56;;;;;;;66.43;25.73;;;;;;;2.12;100.00;100156.31;5029095;28;20219;-76
2022/03/05 03:25:23;;;;;;;61.23;24.57;;;;;;;2.18;100.00;100161.72;5028617;28;20204;-75
2022/03/05 03:27:50;;;;;;;70.40;25.57;;;;;;;2.02;100.00;100164.31;5022433;28;20196;-75
2022/03/05 03:30:19;;;;;;;64.57;25.00;;;;;;;1.91;100.00;100134.78;5033863;28;20630;-76
2022/03/05 03:32:47;;;;;;;59.43;24.23;;;;;;;2.06;100.00;100148.34;5025620;28;20204;-76
2022/03/05 03:35:16;;;;;;;62.00;23.40;;;;;;;1.63;100.00;100106.09;5014991;28;20200;-76
2022/03/05 03:37:43;;;;;;;88.77;22.63;;;;;;;2.05;100.00;100161.91;5015383;28;20185;-76
2022/03/05 03:40:14;;;;;;;84.73;25.63;;;;;;;2.07;100.00;100162.84;5014565;28;20253;-76
2022/03/05 03:42:41;;;;;;;60.50;20.90;;;;;;;1.86;100.00;100159.22;5014298;28;20205;-76
2022/03/05 03:45:09;;;;;;;81.80;24.87;;;;;;;1.96;100.00;100164.03;5024106;28;20288;-76
2022/03/05 03:47:38;;;;;;;75.53;27.07;;;;;;;1.96;100.00;100153.81;5031348;28;20236;-75
2022/03/05 03:50:09;;;;;;;68.50;26.03;;;;;;;2.03;100.00;100166.09;5030238;28;20231;-76
2022/03/05 03:52:36;;;;;;;62.80;26.87;;;;;;;1.96;100.00;100161.47;5015245;28;20215;-76
2022/03/05 03:55:08;;;;;;;71.80;27.90;;;;;;;2.19;100.00;100168.59;5014990;28;20192;-76
2022/03/05 03:57:35;;;;;;;58.20;23.23;;;;;;;2.06;100.00;100170.47;5014972;28;20193;-76
2022/03/05 04:00:03;;;;;;;24.83;12.57;;;;;;;1.88;100.00;100166.19;5014008;28;20201;-76
2022/03/05 04:02:30;;;;;;;47.47;20.37;;;;;;;1.92;100.00;100164.69;5013829;28;20212;-76
2022/03/05 04:04:58;;;;;;;58.97;25.43;;;;;;;1.96;100.00;100169.16;5013267;28;20585;-76
2022/03/05 04:10:09;;;;;;;58.83;22.10;;;;;;;1.61;100.00;100164.78;5031874;28;20691;-75
2022/03/05 04:12:36;;;;;;;51.53;23.07;;;;;;;1.50;100.00;100174.44;5031480;28;20203;-75
2022/03/05 04:15:03;;;;;;;65.30;28.00;;;;;;;1.41;100.00;100163.75;5013197;28;20190;-76
2022/03/05 04:17:30;;;;;;;58.77;26.73;;;;;;;1.62;100.00;100155.44;5013791;28;20197;-76
2022/03/05 04:19:59;;;;;;;78.40;30.83;;;;;;;1.25;100.00;100157.78;5019270;28;20631;-75
2022/03/05 04:22:25;;;;;;;60.00;27.00;;;;;;;1.50;100.00;100168.44;5033368;28;20223;-76
2022/03/05 04:24:52;;;;;;;69.63;31.33;;;;;;;1.23;100.00;100109.16;5019094;28;20239;-76
2022/03/05 04:27:19;;;;;;;76.67;30.80;;;;;;;1.83;100.00;100176.97;5032691;28;20678;-75
2022/03/05 04:29:46;;;;;;;66.50;26.97;;;;;;;1.79;100.00;100175.06;5024783;28;20221;-75
2022/03/05 04:32:13;;;;;;;60.03;25.77;;;;;;;1.48;100.00;100153.06;5014194;28;20185;-77
2022/03/05 04:34:40;;;;;;;53.20;24.90;;;;;;;1.37;100.00;100153.28;5013851;28;20196;-77
2022/03/05 04:37:08;;;;;;;71.53;28.83;;;;;;;1.07;100.00;100070.84;5032958;28;20196;-77
2022/03/05 04:39:35;;;;;;;65.97;28.67;;;;;;;0.99;100.00;100108.78;5032394;28;20574;-77
2022/03/05 04:42:02;;;;;;;83.77;30.57;;;;;;;1.69;100.00;100193.28;5032350;28;20254;-75
2022/03/05 04:44:29;;;;;;;75.57;32.70;;;;;;;1.86;100.00;100187.34;5028654;28;20201;-75
2022/03/05 04:46:56;;;;;;;79.87;31.33;;;;;;;1.82;100.00;100177.78;5013249;28;20231;-76
2022/03/05 04:49:23;;;;;;;70.37;29.83;;;;;;;2.07;100.00;100197.81;5013598;28;20224;-76
2022/03/05 04:51:50;;;;;;;68.90;29.53;;;;;;;2.00;100.00;100181.25;5032627;28;20198;-75
2022/03/05 04:54:18;;;;;;;69.57;27.27;;;;;;;2.09;100.00;100184.28;5023862;28;20255;-76
2022/03/05 04:56:45;;;;;;;69.23;28.53;;;;;;;2.14;100.00;100210.94;5029488;28;20196;-77
2022/03/05 04:59:12;;;;;;;69.10;28.97;;;;;;;2.15;100.00;100211.84;5012636;28;20205;-76
2022/03/05 05:01:39;;;;;;;70.27;27.20;;;;;;;2.13;100.00;100209.22;5018640;28;20200;-77
2022/03/05 05:04:06;;;;;;;72.50;27.40;;;;;;;1.77;100.00;100215.00;5030375;28;20200;-76
2022/03/05 05:06:33;;;;;;;70.23;29.57;;;;;;;1.47;100.00;100201.50;5031191;28;20200;-77
2022/03/05 05:08:59;;;;;;;64.30;29.20;;;;;;;1.50;100.00;100209.31;5030004;28;20189;-76
2022/03/05 05:11:28;;;;;;;71.20;27.80;;;;;;;1.73;100.00;100196.09;5021985;28;20220;-76
2022/03/05 05:13:54;;;;;;;68.17;28.67;;;;;;;1.73;100.00;100216.53;5032248;28;20689;-76
2022/03/05 05:16:21;;;;;;;55.20;24.50;;;;;;;1.42;100.00;100193.63;5032269;28;20222;-76
2022/03/05 05:21:33;;;;;;;91.30;29.47;;;;;;;0.77;100.00;100029.31;5032383;28;20270;-76
2022/03/05 05:24:00;;;;;;;71.70;22.67;;;;;;;1.68;100.00;100222.19;5032113;28;20232;-75
2022/03/05 05:26:28;;;;;;;71.63;29.03;;;;;;;1.68;100.00;100227.28;5032962;28;20643;-75
2022/03/05 05:28:55;;;;;;;67.83;25.53;;;;;;;1.91;100.00;100232.81;5012185;28;20662;-75
2022/03/05 05:31:22;;;;;;;61.50;24.90;;;;;;;1.71;100.00;100230.88;5012175;28;20236;-76
2022/03/05 05:33:50;;;;;;;93.33;30.47;;;;;;;1.70;100.00;100225.72;5012597;28;20587;-75
2022/03/05 05:36:17;;;;;;;98.20;27.77;;;;;;;1.55;100.00;100204.47;5011806;28;20199;-76
2022/03/05 05:38:44;;;;;;;36.30;16.97;;;;;;;1.88;100.00;100239.44;5012162;28;20204;-77
2022/03/05 05:41:12;;;;;;;81.90;27.00;;;;;;;1.71;100.00;100245.38;5011913;28;20620;-76
2022/03/05 05:43:40;;;;;;;72.50;27.97;;;;;;;1.91;100.00;100245.59;5012191;28;20632;-76
2022/03/05 05:46:07;;;;;;;68.10;25.77;;;;;;;1.95;100.00;100255.19;5013183;28;20212;-76
2022/03/05 05:48:34;;;;;;;88.50;27.40;;;;;;;1.97;100.00;100260.34;5012239;28;20236;-76
2022/03/05 05:51:00;;;;;;;84.40;31.67;;;;;;;2.10;100.00;100255.09;5013113;28;20275;-77
2022/03/05 05:53:27;;;;;;;71.63;28.87;;;;;;;2.18;100.00;100263.13;5012099;28;20196;-76
2022/03/05 05:55:54;;;;;;;67.03;27.10;;;;;;;2.23;100.00;100254.91;5024522;28;20192;-76
2022/03/05 05:58:21;;;;;;;77.00;30.07;;;;;;;2.31;100.00;100256.19;5025209;28;20208;-75
2022/03/05 06:00:50;;;;;;;64.80;25.93;;;;;;;2.36;100.00;100270.06;5031159;28;20192;-78
2022/03/05 06:03:17;;;;;;;66.63;29.37;;;;;;;2.29;100.00;100267.09;5027599;28;20204;-76
2022/03/05 06:05:44;;;;;;;89.77;29.77;;;;;;;2.27;100.00;100256.81;5015250;28;20622;-78
2022/03/05 06:08:11;;;;;;;76.80;28.17;;;;;;;2.48;100.00;100273.25;5027645;28;20188;-76
2022/03/05 06:10:38;;;;;;;55.30;23.20;;;;;;;2.27;100.00;100284.06;5033831;28;20239;-75
2022/03/05 06:13:04;;;;;;;64.87;26.83;;;;;;;2.11;100.00;100282.41;5034109;28;20215;-75
2022/03/05 06:15:31;;;;;;;59.90;22.77;;;;;;;2.16;100.00;100282.66;5035224;28;20192;-77
2022/03/05 06:17:59;;;;;;;76.40;28.57;;;;;;;2.34;100.00;100291.25;5035262;28;20688;-76
2022/03/05 06:20:27;;;;;;;62.33;25.90;;;;;;;2.44;100.00;100299.47;5035587;28;20192;-76
2022/03/05 06:22:54;;;;;;;70.70;27.20;;;;;;;2.64;100.00;100297.03;5033249;28;20207;-78
2022/03/05 06:25:20;;;;;;;72.37;27.97;;;;;;;2.78;100.00;100303.72;5030782;28;20200;-75
2022/03/05 06:27:47;;;;;;;71.40;29.80;;;;;;;2.72;100.00;100311.06;5032801;28;20720;-76
2022/03/05 06:30:14;;;;;;;59.97;26.87;;;;;;;3.31;100.00;100299.50;5015570;28;20220;-75
2022/03/05 06:32:41;;;;;;;61.93;27.00;;;;;;;3.00;100.00;100309.94;5023157;28;20223;-76
2022/03/05 06:35:10;;;;;;;37.67;19.20;;;;;;;2.71;100.00;100324.69;5026326;28;20288;-77
2022/03/05 06:37:37;;;;;;;64.27;30.03;;;;;;;2.58;100.00;100314.63;5015562;28;20189;-77
2022/03/05 06:40:05;;;;;;;70.43;24.77;;;;;;;2.36;100.00;100330.56;5016894;28;20663;-77
2022/03/05 06:42:32;;;;;;;63.47;26.60;;;;;;;2.49;100.00;100336.41;5029525;28;20204;-77
2022/03/05 06:44:58;;;;;;;73.00;25.23;;;;;;;2.57;100.00;100335.94;5016475;28;20303;-76
2022/03/05 06:47:25;;;;;;;66.80;27.70;;;;;;;2.72;100.00;100329.00;5015268;28;20239;-76
2022/03/05 06:49:53;;;;;;;66.10;29.07;;;;;;;2.87;100.00;100338.31;5030016;28;20553;-77
2022/03/05 06:52:21;;;;;;;53.33;24.93;;;;;;;2.76;100.00;100325.78;5015243;28;20690;-76
2022/03/05 06:54:48;;;;;;;39.23;17.73;;;;;;;3.03;100.00;100332.28;5024691;28;20246;-76
2022/03/05 06:57:15;;;;;;;55.13;26.17;;;;;;;2.49;100.00;100332.97;5033098;28;20670;-76
2022/03/05 06:59:42;;;;;;;60.73;25.50;;;;;;;2.54;100.00;100289.69;5024302;28;20209;-78
2022/03/05 07:02:09;;;;;;;56.30;27.03;;;;;;;2.86;100.00;100315.19;5014907;28;20766;-75
2022/03/05 07:04:35;;;;;;;64.60;28.67;;;;;;;2.83;100.00;100295.44;5015559;28;20197;-76
2022/03/05 07:07:03;;;;;;;61.13;28.07;;;;;;;2.68;100.00;100258.84;5014709;28;20197;-75
2022/03/05 07:09:31;;;;;;;55.27;25.57;;;;;;;2.93;100.00;100322.38;5014802;28;20594;-76
2022/03/05 07:11:57;;;;;;;71.63;29.03;;;;;;;3.41;100.00;100352.94;5022374;28;20282;-76
2022/03/05 07:14:24;;;;;;;55.20;26.37;;;;;;;3.35;100.00;100360.31;5034523;28;20207;-76
2022/03/05 07:16:51;;;;;;;65.70;29.80;;;;;;;3.37;100.00;100362.94;5033360;28;20200;-75
2022/03/05 07:19:18;;;;;;;84.37;28.73;;;;;;;3.41;100.00;100344.34;5031649;28;20552;-75
2022/03/05 07:21:45;;;;;;;62.97;25.97;;;;;;;3.45;100.00;100349.72;5032503;28;20200;-77
2022/03/05 07:24:12;;;;;;;60.60;26.00;;;;;;;3.39;100.00;100310.97;5033232;28;20200;-77
2022/03/05 07:26:40;;;;;;;90.17;32.03;;;;;;;3.90;100.00;100368.91;5032582;28;20200;-76
2022/03/05 07:29:08;;;;;;;163.30;44.83;;;;;;;3.65;100.00;100298.47;5031031;28;20193;-76
2022/03/05 07:31:34;;;;;;;114.27;37.83;;;;;;;4.23;100.00;100368.66;5032767;28;20236;-76
2022/03/05 07:34:01;;;;;;;124.07;35.43;;;;;;;4.02;100.00;100360.91;5023511;28;20200;-76
2022/03/05 07:36:30;;;;;;;59.30;27.13;;;;;;;4.08;100.00;100378.22;5032254;28;20204;-75
2022/03/05 07:38:56;;;;;;;128.40;42.60;;;;;;;4.27;100.00;100374.00;5031654;28;20228;-76
2022/03/05 07:41:24;;;;;;;106.27;36.50;;;;;;;4.06;100.00;100306.34;5033594;28;20200;-77
2022/03/05 07:43:52;;;;;;;63.93;30.03;;;;;;;4.29;100.00;100374.06;5029243;28;20599;-74
2022/03/05 07:46:18;;;;;;;64.40;28.43;;;;;;;4.04;100.00;100382.34;5015821;28;20271;-74
2022/03/05 07:48:45;;;;;;;77.43;32.37;;;;;;;4.07;100.00;100371.38;5013816;28;20581;-75
2022/03/05 07:51:12;;;;;;;72.10;29.20;;;;;;;3.94;100.00;100362.22;5017957;28;20227;-74
2022/03/05 07:53:39;;;;;;;68.47;31.07;;;;;;;4.16;100.00;100367.53;5026105;28;20584;-78
2022/03/05 07:56:06;;;;;;;65.67;27.40;;;;;;;4.66;100.00;100377.44;5013970;28;20197;-75
2022/03/05 07:58:33;;;;;;;65.10;29.77;;;;;;;4.82;100.00;100384.09;5026177;28;20246;-73
2022/03/05 08:01:01;;;;;;;69.17;30.97;;;;;;;5.15;100.00;100393.22;5019933;28;20193;-74
2022/03/05 08:03:28;;;;;;;52.30;25.70;;;;;;;4.62;100.00;100384.94;5014046;28;20199;-75
2022/03/05 08:05:55;;;;;;;55.47;25.53;;;;;;;4.42;100.00;100382.38;5014178;28;20204;-74
2022/03/05 08:08:22;;;;;;;60.30;26.93;;;;;;;4.59;100.00;100389.94;5013629;28;20197;-75
2022/03/05 08:10:49;;;;;;;59.57;25.57;;;;;;;4.37;100.00;100373.59;5020872;28;20232;-75
2022/03/05 08:13:15;;;;;;;56.70;26.43;;;;;;;4.59;100.00;100395.97;5025039;28;20682;-78
2022/03/05 08:15:42;;;;;;;58.43;26.30;;;;;;;4.58;100.00;100395.88;5031760;28;20196;-74
2022/03/05 08:18:10;;;;;;;58.53;28.17;;;;;;;4.46;100.00;100397.09;5030720;28;20197;-75
2022/03/05 08:20:38;;;;;;;62.47;27.63;;;;;;;4.37;100.00;100389.00;5031010;28;20204;-75
2022/03/05 08:23:05;;;;;;;56.40;25.27;;;;;;;4.23;100.00;100359.28;5030835;28;20689;-76
2022/03/05 08:25:32;;;;;;;58.63;27.13;;;;;;;4.67;100.00;100398.88;5032744;28;20204;-76
2022/03/05 08:27:59;;;;;;;62.13;28.13;;;;;;;4.75;100.00;100392.34;5022284;28;20192;-77
2022/03/05 08:30:26;;;;;;;58.27;25.40;;;;;;;4.93;100.00;100388.88;5027560;28;20208;-77
2022/03/05 08:32:53;;;;;;;46.30;24.50;;;;;;;4.89;100.00;100397.25;5025678;28;20192;-76
2022/03/05 08:35:21;;;;;;;66.00;29.70;;;;;;;4.99;100.00;100394.25;5031836;28;20591;-76
2022/03/05 08:37:48;;;;;;;47.53;23.93;;;;;;;4.66;100.00;100397.09;5032704;28;20196;-77
2022/03/05 08:40:16;;;;;;;53.53;24.47;;;;;;;4.24;100.00;100402.09;5031360;28;20207;-77
2022/03/05 08:42:43;;;;;;;51.57;23.97;;;;;;;4.57;100.00;100396.69;5021502;28;20204;-74
2022/03/05 08:45:11;;;;;;;90.50;42.07;;;;;;;4.39;100.00;100355.69;5011021;28;20197;-78
2022/03/05 08:47:39;;;;;;;53.93;27.47;;;;;;;4.49;100.00;100388.69;5026142;28;20237;-75
2022/03/05 08:50:07;;;;;;;52.13;25.67;;;;;;;4.57;100.00;100394.13;5031616;28;20196;-74
2022/03/05 08:52:36;;;;;;;65.47;31.27;;;;;;;4.60;100.00;100399.41;5031870;28;20223;-75
2022/03/05 08:55:05;;;;;;;40.93;20.60;;;;;;;4.53;100.00;100407.66;5017430;28;20205;-75
2022/03/05 08:57:32;;;;;;;60.77;28.13;;;;;;;4.67;100.00;100404.88;5028716;28;20200;-74
2022/03/05 08:59:59;;;;;;;56.53;28.03;;;;;;;4.59;100.00;100395.97;5024323;28;20546;-77
2022/03/05 09:02:26;;;;;;;56.83;26.27;;;;;;;4.55;100.00;100414.59;5019635;28;20282;-77
2022/03/05 09:04:53;;;;;;;52.90;26.07;;;;;;;4.63;100.00;100402.09;5012907;28;20193;-77
2022/03/05 09:07:20;;;;;;;56.80;26.83;;;;;;;4.87;100.00;100409.19;5012515;28;20652;-76
2022/03/05 09:09:48;;;;;;;36.60;19.73;;;;;;;5.17;100.00;100394.19;5012724;28;20200;-80
2022/03/05 09:12:15;;;;;;;57.03;26.80;;;;;;;5.04;100.00;100397.03;5025604;28;20227;-80
2022/03/05 09:14:42;;;;;;;59.27;29.83;;;;;;;4.69;100.00;100407.50;5032311;28;20226;-79
2022/03/05 09:17:08;;;;;;;95.37;23.33;;;;;;;6.01;100.00;100390.69;5019387;28;20193;-75
2022/03/05 09:19:35;;;;;;;67.23;31.50;;;;;;;5.87;100.00;100409.88;5013506;28;20197;-76
2022/03/05 09:22:03;;;;;;;75.97;37.83;;;;;;;5.23;100.00;100291.59;5015269;28;20196;-81
2022/03/05 09:24:29;;;;;;;66.33;32.67;;;;;;;6.08;100.00;100410.69;5013219;28;20671;-78
2022/03/05 09:26:58;;;;;;;60.37;29.40;;;;;;;6.07;100.00;100419.22;5012324;28;20193;-82
2022/03/05 09:29:25;;;;;;;62.87;30.17;;;;;;;6.25;100.00;100422.50;5012463;28;20189;-80
2022/03/05 09:31:52;;;;;;;61.30;31.03;;;;;;;6.22;100.00;100403.47;5027554;28;20232;-81
2022/03/05 09:34:18;;;;;;;66.90;32.87;;;;;;;6.14;100.00;100354.28;5023001;28;20579;-80
2022/03/05 09:36:45;;;;;;;57.80;28.43;;;;;;;6.13;100.00;100422.06;5011488;28;20211;-79
2022/03/05 09:39:12;;;;;;;55.60;29.40;;;;;;;6.28;100.00;100417.47;5012180;28;20220;-80
2022/03/05 09:41:40;;;;;;;59.93;28.73;;;;;;;5.99;100.00;100420.66;5012090;28;20208;-81
2022/03/05 09:44:09;;;;;;;55.30;28.63;;;;;;;6.05;100.00;100368.53;5012733;28;20225;-81
2022/03/05 09:46:36;;;;;;;55.37;26.90;;;;;;;6.32;100.00;100421.91;5011330;28;20236;-81
2022/03/05 09:49:04;;;;;;;60.47;30.33;;;;;;;6.30;100.00;100426.13;5028923;28;20204;-81
2022/03/05 09:51:32;;;;;;;66.57;30.80;;;;;;;5.97;100.00;100342.50;5013087;28;20286;-80
2022/03/05 09:53:59;;;;;;;69.47;30.90;;;;;;;6.21;100.00;100386.28;5017060;28;20691;-79
2022/03/05 09:56:28;;;;;;;68.57;31.77;;;;;;;6.56;100.00;100427.09;5031240;28;20611;-80
2022/03/05 09:58:56;;;;;;;67.77;32.10;;;;;;;5.74;100.00;100274.69;5031528;28;20208;-81
2022/03/05 10:01:24;;;;;;;61.63;32.33;;;;;;;6.34;100.00;100391.97;5025414;28;20192;-80
2022/03/05 10:03:53;;;;;;;59.67;29.53;;;;;;;6.18;100.00;100389.63;5011861;28;20188;-80
2022/03/05 10:06:21;;;;;;;61.13;29.63;;;;;;;6.45;100.00;100438.72;5025407;28;20283;-80
2022/03/05 10:08:51;;;;;;;56.27;29.23;;;;;;;5.80;100.00;100425.84;5021223;28;20208;-80
2022/03/05 10:11:19;;;;;;;122.17;56.00;;;;;;;5.71;100.00;100425.47;5018446;28;20228;-75
2022/03/05 10:13:46;;;;;;;171.47;65.13;;;;;;;5.89;100.00;100446.81;5030597;28;20204;-76
2022/03/05 10:16:29;;;;;;;63.67;34.43;;;;;;;6.25;100.00;100442.22;5030025;28;20698;-79
2022/03/05 10:18:57;;;;;;;81.90;38.60;;;;;;;6.25;100.00;100448.25;5009117;28;20254;-76
2022/03/05 10:21:29;;;;;;;79.73;36.43;;;;;;;6.37;100.00;100442.69;5030340;28;20670;-79
2022/03/05 10:24:07;;;;;;;71.57;34.07;;;;;;;6.62;100.00;100439.31;5031226;28;20288;-79
2022/03/05 10:26:53;;;;;;;75.67;35.57;;;;;;;6.73;100.00;100427.69;5030248;28;20200;-74
2022/03/05 10:29:22;;;;;;;82.90;37.93;;;;;;;6.48;100.00;100374.44;5031454;28;20196;-77
2022/03/05 10:31:58;;;;;;;63.80;32.73;;;;;;;6.93;100.00;100426.69;5027894;28;20775;-77
2022/03/05 10:34:25;;;;;;;46.13;24.50;;;;;;;6.65;100.00;100427.41;5031186;28;20388;-76
2022/03/05 10:36:59;;;;;;;67.63;32.37;;;;;;;6.07;100.00;100416.66;5021409;28;20201;-76
2022/03/05 10:39:26;;;;;;;75.33;35.43;;;;;;;6.19;100.00;100423.97;5011693;28;20243;-76
2022/03/05 10:41:55;;;;;;;82.27;35.87;;;;;;;6.43;100.00;100438.63;5018691;28;20207;-75
2022/03/05 10:44:23;;;;;;;88.40;39.80;;;;;;;6.74;100.00;100434.63;5030948;28;20228;-77
2022/03/05 10:46:56;;;;;;;85.33;38.47;;;;;;;6.59;100.00;100437.50;5022221;28;20225;-73
2022/03/05 10:49:28;;;;;;;74.00;35.40;;;;;;;6.66;100.00;100400.84;5014007;28;20204;-76
2022/03/05 10:52:07;;;;;;;68.93;33.80;;;;;;;6.47;100.00;100448.22;5031032;28;20235;-76
2022/03/05 10:54:38;;;;;;;72.47;32.60;;;;;;;6.36;100.00;100441.81;5030495;28;20671;-75
2022/03/05 10:57:10;;;;;;;68.33;33.20;;;;;;;7.36;100.00;100434.19;5032048;28;20243;-76
2022/03/05 10:59:39;;;;;;;70.00;36.20;;;;;;;7.57;100.00;100445.22;5033464;28;20721;-75
2022/03/05 11:02:06;;;;;;;75.00;33.17;;;;;;;7.03;100.00;100415.03;5034830;28;20205;-75
2022/03/05 11:04:36;;;;;;;85.33;38.90;;;;;;;6.69;100.00;100400.94;5034471;28;20715;-75
2022/03/05 11:07:04;;;;;;;79.03;36.13;;;;;;;6.66;100.00;100415.41;5033556;28;20670;-75
2022/03/05 11:09:31;;;;;;;86.17;42.27;;;;;;;6.30;100.00;100404.66;5034342;28;20754;-76
2022/03/05 11:12:00;;;;;;;88.50;38.60;;;;;;;6.59;100.00;100416.03;5034680;28;20227;-76
2022/03/05 11:14:28;;;;;;;76.77;36.33;;;;;;;6.39;100.00;100416.16;5034589;28;20597;-77
2022/03/05 11:16:56;;;;;;;68.40;33.23;;;;;;;6.59;100.00;100410.88;5027379;28;20193;-75